sensor_id;sensor_type;location;lat;lon;timestamp;temperature;humidity
11083;DHT22;5595;50.186;8.468;2022-08-20T00:00:10;20.50;99.90
11083;DHT22;5595;50.186;8.468;2022-08-20T00:02:40;20.60;99.90
11083;DHT22;5595;50.186;8.468;2022-08-20T00:05:08;20.60;99.90
11083;DHT22;5595;50.186;8.468;2022-08-20T00:07:35;20.60;99.90
11083;DHT22;5595;50.186;8.468;2022-08-20T00:10:03;20.60;99.90
11083;DHT22;5595;50.186;8.468;2022-08-20T00:12:31;20.60;99.90
11083;DHT22;5595;50.186;8.468;2022-08-20T00:14:58;20.70;99.90
11083;DHT22;5595;50.186;8.468;2022-08-20T00:17:27;20.60;99.90
11083;DHT22;5595;50.186;8.468;2022-08-20T00:19:57;20.60;99.90
11083;DHT22;5595;50.186;8.468;2022-08-20T00:22:24;20.60;99.90
11083;DHT22;5595;50.186;8.468;2022-08-20T00:24:52;20.60;99.90
11083;DHT22;5595;50.186;8.468;2022-08-20T00:27:19;20.50;99.90
11083;DHT22;5595;50.186;8.468;2022-08-20T00:29:46;20.50;99.90
11083;DHT22;5595;50.186;8.468;2022-08-20T00:32:13;20.60;99.90
11083;DHT22;5595;50.186;8.468;2022-08-20T00:34:42;20.50;99.90
11083;DHT22;5595;50.186;8.468;2022-08-20T00:37:08;20.50;99.90
11083;DHT22;5595;50.186;8.468;2022-08-20T00:39:37;20.40;99.90
11083;DHT22;5595;50.186;8.468;2022-08-20T00:42:05;20.40;99.90
11083;DHT22;5595;50.186;8.468;2022-08-20T00:44:32;20.40;99.90
11083;DHT22;5595;50.186;8.468;2022-08-20T00:47:00;20.40;99.90
11083;DHT22;5595;50.186;8.468;2022-08-20T00:49:30;20.30;99.90
11083;DHT22;5595;50.186;8.468;2022-08-20T00:52:03;20.30;99.90
11083;DHT22;5595;50.186;8.468;2022-08-20T00:54:35;20.30;99.90
11083;DHT22;5595;50.186;8.468;2022-08-20T00:57:08;20.30;99.90
11083;DHT22;5595;50.186;8.468;2022-08-20T00:59:37;20.30;99.90
11083;DHT22;5595;50.186;8.468;2022-08-20T01:02:09;20.30;99.90
11083;DHT22;5595;50.186;8.468;2022-08-20T01:04:37;20.20;99.90
11083;DHT22;5595;50.186;8.468;2022-08-20T01:07:06;20.20;99.90
11083;DHT22;5595;50.186;8.468;2022-08-20T01:09:34;20.20;99.90
11083;DHT22;5595;50.186;8.468;2022-08-20T01:12:01;20.10;99.90
11083;DHT22;5595;50.186;8.468;2022-08-20T01:14:29;20.00;99.90
11083;DHT22;5595;50.186;8.468;2022-08-20T01:17:05;20.00;99.90
11083;DHT22;5595;50.186;8.468;2022-08-20T01:19:37;20.10;99.90
11083;DHT22;5595;50.186;8.468;2022-08-20T01:22:06;20.10;99.90
11083;DHT22;5595;50.186;8.468;2022-08-20T01:24:54;20.00;99.90
11083;DHT22;5595;50.186;8.468;2022-08-20T01:27:23;20.00;99.90
11083;DHT22;5595;50.186;8.468;2022-08-20T01:29:50;20.00;99.90
11083;DHT22;5595;50.186;8.468;2022-08-20T01:32:17;19.90;99.90
11083;DHT22;5595;50.186;8.468;2022-08-20T01:34:44;20.00;99.90
11083;DHT22;5595;50.186;8.468;2022-08-20T01:37:11;19.90;99.90
11083;DHT22;5595;50.186;8.468;2022-08-20T01:39:38;19.90;99.90
11083;DHT22;5595;50.186;8.468;2022-08-20T01:42:09;19.90;99.90
11083;DHT22;5595;50.186;8.468;2022-08-20T01:44:41;19.90;99.90
11083;DHT22;5595;50.186;8.468;2022-08-20T01:47:12;19.90;99.90
11083;DHT22;5595;50.186;8.468;2022-08-20T01:49:41;19.80;99.90
11083;DHT22;5595;50.186;8.468;2022-08-20T01:52:13;19.80;99.90
11083;DHT22;5595;50.186;8.468;2022-08-20T01:54:42;19.80;99.90
11083;DHT22;5595;50.186;8.468;2022-08-20T01:57:12;19.80;99.90
11083;DHT22;5595;50.186;8.468;2022-08-20T01:59:41;19.80;99.90
11083;DHT22;5595;50.186;8.468;2022-08-20T02:02:10;19.80;99.90
11083;DHT22;5595;50.186;8.468;2022-08-20T02:04:38;19.80;99.90
11083;DHT22;5595;50.186;8.468;2022-08-20T02:07:12;19.80;99.90
11083;DHT22;5595;50.186;8.468;2022-08-20T02:09:39;19.80;99.90
11083;DHT22;5595;50.186;8.468;2022-08-20T02:12:08;19.80;99.90
11083;DHT22;5595;50.186;8.468;2022-08-20T02:14:41;19.80;99.90
11083;DHT22;5595;50.186;8.468;2022-08-20T02:17:09;19.80;99.90
11083;DHT22;5595;50.186;8.468;2022-08-20T02:19:39;19.80;99.90
11083;DHT22;5595;50.186;8.468;2022-08-20T02:22:21;19.80;99.90
11083;DHT22;5595;50.186;8.468;2022-08-20T02:24:49;19.80;99.90
11083;DHT22;5595;50.186;8.468;2022-08-20T02:27:15;19.90;99.90
11083;DHT22;5595;50.186;8.468;2022-08-20T02:29:45;19.90;99.90
11083;DHT22;5595;50.186;8.468;2022-08-20T02:32:12;19.80;99.90
11083;DHT22;5595;50.186;8.468;2022-08-20T02:34:39;19.80;99.90
11083;DHT22;5595;50.186;8.468;2022-08-20T02:37:06;19.80;99.90
11083;DHT22;5595;50.186;8.468;2022-08-20T02:39:34;19.70;99.90
11083;DHT22;5595;50.186;8.468;2022-08-20T02:42:01;19.70;99.90
11083;DHT22;5595;50.186;8.468;2022-08-20T02:44:28;19.70;99.90
11083;DHT22;5595;50.186;8.468;2022-08-20T02:46:56;19.70;99.90
11083;DHT22;5595;50.186;8.468;2022-08-20T02:49:24;19.80;99.90
11083;DHT22;5595;50.186;8.468;2022-08-20T02:51:51;19.70;99.90
11083;DHT22;5595;50.186;8.468;2022-08-20T02:54:18;19.70;99.90
11083;DHT22;5595;50.186;8.468;2022-08-20T02:56:45;19.80;99.90
11083;DHT22;5595;50.186;8.468;2022-08-20T02:59:15;19.80;99.90
11083;DHT22;5595;50.186;8.468;2022-08-20T03:01:43;19.90;99.90
11083;DHT22;5595;50.186;8.468;2022-08-20T03:04:11;19.90;99.90
11083;DHT22;5595;50.186;8.468;2022-08-20T03:06:38;19.90;99.90
11083;DHT22;5595;50.186;8.468;2022-08-20T03:09:05;20.10;99.90
11083;DHT22;5595;50.186;8.468;2022-08-20T03:11:33;20.30;99.90
11083;DHT22;5595;50.186;8.468;2022-08-20T03:14:00;20.40;99.90
11083;DHT22;5595;50.186;8.468;2022-08-20T03:16:27;20.40;99.90
11083;DHT22;5595;50.186;8.468;2022-08-20T03:18:54;20.50;99.90
11083;DHT22;5595;50.186;8.468;2022-08-20T03:21:23;20.40;99.90
11083;DHT22;5595;50.186;8.468;2022-08-20T03:23:51;20.50;99.90
11083;DHT22;5595;50.186;8.468;2022-08-20T03:26:17;20.50;99.90
11083;DHT22;5595;50.186;8.468;2022-08-20T03:28:44;20.50;99.90
11083;DHT22;5595;50.186;8.468;2022-08-20T03:31:11;20.60;99.90
11083;DHT22;5595;50.186;8.468;2022-08-20T03:33:40;20.90;99.90
11083;DHT22;5595;50.186;8.468;2022-08-20T03:36:07;20.90;99.90
11083;DHT22;5595;50.186;8.468;2022-08-20T03:38:36;21.00;99.90
11083;DHT22;5595;50.186;8.468;2022-08-20T03:41:03;20.90;99.90
11083;DHT22;5595;50.186;8.468;2022-08-20T03:43:32;20.90;99.90
11083;DHT22;5595;50.186;8.468;2022-08-20T03:46:00;20.80;99.90
11083;DHT22;5595;50.186;8.468;2022-08-20T03:48:27;20.70;99.90
11083;DHT22;5595;50.186;8.468;2022-08-20T03:50:54;20.60;99.90
11083;DHT22;5595;50.186;8.468;2022-08-20T03:53:24;20.60;99.90
11083;DHT22;5595;50.186;8.468;2022-08-20T03:55:52;20.50;99.90
11083;DHT22;5595;50.186;8.468;2022-08-20T03:58:21;20.50;99.90
11083;DHT22;5595;50.186;8.468;2022-08-20T04:00:49;20.40;99.90
11083;DHT22;5595;50.186;8.468;2022-08-20T04:03:17;20.40;99.90
11083;DHT22;5595;50.186;8.468;2022-08-20T04:05:44;20.40;99.90
11083;DHT22;5595;50.186;8.468;2022-08-20T04:08:14;20.30;99.90
11083;DHT22;5595;50.186;8.468;2022-08-20T04:10:42;20.20;99.90
11083;DHT22;5595;50.186;8.468;2022-08-20T04:13:12;20.10;99.90
11083;DHT22;5595;50.186;8.468;2022-08-20T04:15:39;20.10;99.90
11083;DHT22;5595;50.186;8.468;2022-08-20T04:18:08;20.00;99.90
11083;DHT22;5595;50.186;8.468;2022-08-20T04:20:38;19.90;99.90
11083;DHT22;5595;50.186;8.468;2022-08-20T04:23:05;19.90;99.90
11083;DHT22;5595;50.186;8.468;2022-08-20T04:25:33;19.80;99.90
11083;DHT22;5595;50.186;8.468;2022-08-20T04:28:04;19.80;99.90
11083;DHT22;5595;50.186;8.468;2022-08-20T04:30:32;19.90;99.90
11083;DHT22;5595;50.186;8.468;2022-08-20T04:33:00;19.90;99.90
11083;DHT22;5595;50.186;8.468;2022-08-20T04:35:28;19.90;99.90
11083;DHT22;5595;50.186;8.468;2022-08-20T04:38:00;19.90;99.90
11083;DHT22;5595;50.186;8.468;2022-08-20T04:40:28;19.90;99.90
11083;DHT22;5595;50.186;8.468;2022-08-20T04:43:13;20.00;99.90
11083;DHT22;5595;50.186;8.468;2022-08-20T04:45:42;20.00;99.90
11083;DHT22;5595;50.186;8.468;2022-08-20T04:48:09;20.10;99.90
11083;DHT22;5595;50.186;8.468;2022-08-20T04:50:38;20.10;99.90
11083;DHT22;5595;50.186;8.468;2022-08-20T04:53:07;20.10;99.90
11083;DHT22;5595;50.186;8.468;2022-08-20T04:55:36;20.10;99.90
11083;DHT22;5595;50.186;8.468;2022-08-20T04:58:07;19.90;99.90
11083;DHT22;5595;50.186;8.468;2022-08-20T05:00:34;19.80;99.90
11083;DHT22;5595;50.186;8.468;2022-08-20T05:03:03;19.50;99.90
11083;DHT22;5595;50.186;8.468;2022-08-20T05:05:31;19.20;99.90
11083;DHT22;5595;50.186;8.468;2022-08-20T05:08:00;18.90;99.90
11083;DHT22;5595;50.186;8.468;2022-08-20T05:10:28;18.70;99.90
11083;DHT22;5595;50.186;8.468;2022-08-20T05:12:59;18.70;99.90
11083;DHT22;5595;50.186;8.468;2022-08-20T05:15:26;18.60;99.90
11083;DHT22;5595;50.186;8.468;2022-08-20T05:17:55;18.60;99.90
11083;DHT22;5595;50.186;8.468;2022-08-20T05:20:23;18.60;99.90
11083;DHT22;5595;50.186;8.468;2022-08-20T05:22:53;18.60;99.90
11083;DHT22;5595;50.186;8.468;2022-08-20T05:25:20;18.60;99.90
11083;DHT22;5595;50.186;8.468;2022-08-20T05:27:48;18.70;99.90
11083;DHT22;5595;50.186;8.468;2022-08-20T05:30:15;18.70;99.90
11083;DHT22;5595;50.186;8.468;2022-08-20T05:32:41;18.80;99.90
11083;DHT22;5595;50.186;8.468;2022-08-20T05:35:09;18.90;99.90
11083;DHT22;5595;50.186;8.468;2022-08-20T05:37:39;18.90;99.90
11083;DHT22;5595;50.186;8.468;2022-08-20T05:40:08;19.00;99.90
11083;DHT22;5595;50.186;8.468;2022-08-20T05:42:36;19.00;99.90
11083;DHT22;5595;50.186;8.468;2022-08-20T05:45:05;19.00;99.90
11083;DHT22;5595;50.186;8.468;2022-08-20T05:47:32;19.10;99.90
11083;DHT22;5595;50.186;8.468;2022-08-20T05:49:59;19.10;99.90
11083;DHT22;5595;50.186;8.468;2022-08-20T05:52:26;19.10;99.90
11083;DHT22;5595;50.186;8.468;2022-08-20T05:54:57;19.20;99.90
11083;DHT22;5595;50.186;8.468;2022-08-20T05:57:24;19.20;99.90
11083;DHT22;5595;50.186;8.468;2022-08-20T05:59:50;19.20;99.90
11083;DHT22;5595;50.186;8.468;2022-08-20T06:02:18;19.20;99.90
11083;DHT22;5595;50.186;8.468;2022-08-20T06:05:03;19.20;99.90
11083;DHT22;5595;50.186;8.468;2022-08-20T06:07:30;19.20;99.90
11083;DHT22;5595;50.186;8.468;2022-08-20T06:09:59;19.40;99.90
11083;DHT22;5595;50.186;8.468;2022-08-20T06:12:26;19.40;99.90
11083;DHT22;5595;50.186;8.468;2022-08-20T06:14:53;19.50;99.90
11083;DHT22;5595;50.186;8.468;2022-08-20T06:17:20;19.60;99.90
11083;DHT22;5595;50.186;8.468;2022-08-20T06:19:50;19.80;99.90
11083;DHT22;5595;50.186;8.468;2022-08-20T06:22:17;19.90;99.90
11083;DHT22;5595;50.186;8.468;2022-08-20T06:24:44;20.00;99.90
11083;DHT22;5595;50.186;8.468;2022-08-20T06:27:14;20.10;99.90
11083;DHT22;5595;50.186;8.468;2022-08-20T06:29:41;20.10;99.90
11083;DHT22;5595;50.186;8.468;2022-08-20T06:32:09;20.10;99.90
11083;DHT22;5595;50.186;8.468;2022-08-20T06:34:36;20.10;99.90
11083;DHT22;5595;50.186;8.468;2022-08-20T06:37:13;20.00;99.90
11083;DHT22;5595;50.186;8.468;2022-08-20T06:39:40;19.90;99.90
11083;DHT22;5595;50.186;8.468;2022-08-20T06:42:07;19.70;99.90
11083;DHT22;5595;50.186;8.468;2022-08-20T06:44:36;19.60;99.90
11083;DHT22;5595;50.186;8.468;2022-08-20T06:47:04;19.50;99.90
11083;DHT22;5595;50.186;8.468;2022-08-20T06:49:33;19.50;99.90
11083;DHT22;5595;50.186;8.468;2022-08-20T06:52:01;19.50;99.90
11083;DHT22;5595;50.186;8.468;2022-08-20T06:54:28;19.40;99.90
11083;DHT22;5595;50.186;8.468;2022-08-20T06:56:55;19.40;99.90
11083;DHT22;5595;50.186;8.468;2022-08-20T06:59:22;19.40;99.90
11083;DHT22;5595;50.186;8.468;2022-08-20T07:01:50;19.40;99.90
11083;DHT22;5595;50.186;8.468;2022-08-20T07:04:21;19.50;99.90
11083;DHT22;5595;50.186;8.468;2022-08-20T07:06:50;19.60;99.90
11083;DHT22;5595;50.186;8.468;2022-08-20T07:09:17;19.60;99.90
11083;DHT22;5595;50.186;8.468;2022-08-20T07:11:44;19.70;99.90
11083;DHT22;5595;50.186;8.468;2022-08-20T07:14:13;19.60;99.90
11083;DHT22;5595;50.186;8.468;2022-08-20T07:16:40;19.70;99.90
11083;DHT22;5595;50.186;8.468;2022-08-20T07:19:12;19.80;99.90
11083;DHT22;5595;50.186;8.468;2022-08-20T07:21:39;19.90;99.90
11083;DHT22;5595;50.186;8.468;2022-08-20T07:24:06;20.10;99.90
11083;DHT22;5595;50.186;8.468;2022-08-20T07:26:34;20.30;99.90
11083;DHT22;5595;50.186;8.468;2022-08-20T07:29:01;20.60;99.90
11083;DHT22;5595;50.186;8.468;2022-08-20T07:31:28;20.80;99.90
11083;DHT22;5595;50.186;8.468;2022-08-20T07:34:13;21.10;99.90
11083;DHT22;5595;50.186;8.468;2022-08-20T07:36:40;21.30;99.90
11083;DHT22;5595;50.186;8.468;2022-08-20T07:39:08;21.50;99.90
11083;DHT22;5595;50.186;8.468;2022-08-20T07:41:35;21.70;99.90
11083;DHT22;5595;50.186;8.468;2022-08-20T07:44:02;21.70;99.90
11083;DHT22;5595;50.186;8.468;2022-08-20T07:46:29;21.60;99.90
11083;DHT22;5595;50.186;8.468;2022-08-20T07:48:56;21.60;99.90
11083;DHT22;5595;50.186;8.468;2022-08-20T07:51:25;21.60;99.90
11083;DHT22;5595;50.186;8.468;2022-08-20T07:53:52;21.60;99.90
11083;DHT22;5595;50.186;8.468;2022-08-20T07:56:21;21.70;99.90
11083;DHT22;5595;50.186;8.468;2022-08-20T07:58:50;21.90;99.90
11083;DHT22;5595;50.186;8.468;2022-08-20T08:01:19;22.10;99.90
11083;DHT22;5595;50.186;8.468;2022-08-20T08:03:46;22.40;99.90
11083;DHT22;5595;50.186;8.468;2022-08-20T08:06:14;22.60;99.90
11083;DHT22;5595;50.186;8.468;2022-08-20T08:08:45;23.00;99.90
11083;DHT22;5595;50.186;8.468;2022-08-20T08:11:12;23.20;99.90
11083;DHT22;5595;50.186;8.468;2022-08-20T08:13:41;23.20;99.90
11083;DHT22;5595;50.186;8.468;2022-08-20T08:16:09;23.20;99.90
11083;DHT22;5595;50.186;8.468;2022-08-20T08:18:39;23.20;99.90
11083;DHT22;5595;50.186;8.468;2022-08-20T08:21:07;23.00;99.90
11083;DHT22;5595;50.186;8.468;2022-08-20T08:23:37;22.90;99.90
11083;DHT22;5595;50.186;8.468;2022-08-20T08:26:10;23.00;99.90
11083;DHT22;5595;50.186;8.468;2022-08-20T08:28:38;23.00;99.90
11083;DHT22;5595;50.186;8.468;2022-08-20T08:31:06;22.90;99.90
11083;DHT22;5595;50.186;8.468;2022-08-20T08:33:33;22.70;99.90
11083;DHT22;5595;50.186;8.468;2022-08-20T08:36:04;22.50;99.90
11083;DHT22;5595;50.186;8.468;2022-08-20T08:38:32;22.30;99.90
11083;DHT22;5595;50.186;8.468;2022-08-20T08:41:09;22.20;99.90
11083;DHT22;5595;50.186;8.468;2022-08-20T08:43:39;22.30;99.90
11083;DHT22;5595;50.186;8.468;2022-08-20T08:46:10;22.50;99.90
11083;DHT22;5595;50.186;8.468;2022-08-20T08:48:40;23.00;99.90
11083;DHT22;5595;50.186;8.468;2022-08-20T08:51:10;23.30;99.90
11083;DHT22;5595;50.186;8.468;2022-08-20T08:53:40;23.70;99.90
11083;DHT22;5595;50.186;8.468;2022-08-20T08:56:08;24.20;99.90
11083;DHT22;5595;50.186;8.468;2022-08-20T08:58:35;24.50;99.90
11083;DHT22;5595;50.186;8.468;2022-08-20T09:01:08;24.60;99.90
11083;DHT22;5595;50.186;8.468;2022-08-20T09:03:37;24.80;99.90
11083;DHT22;5595;50.186;8.468;2022-08-20T09:06:12;24.90;99.90
11083;DHT22;5595;50.186;8.468;2022-08-20T09:08:44;25.10;99.90
11083;DHT22;5595;50.186;8.468;2022-08-20T09:11:13;24.90;99.90
11083;DHT22;5595;50.186;8.468;2022-08-20T09:13:40;24.90;99.90
11083;DHT22;5595;50.186;8.468;2022-08-20T09:16:10;25.10;99.90
11083;DHT22;5595;50.186;8.468;2022-08-20T09:18:37;25.10;99.90
11083;DHT22;5595;50.186;8.468;2022-08-20T09:21:05;25.30;99.90
11083;DHT22;5595;50.186;8.468;2022-08-20T09:23:32;25.50;99.90
11083;DHT22;5595;50.186;8.468;2022-08-20T09:25:59;25.30;99.90
11083;DHT22;5595;50.186;8.468;2022-08-20T09:28:26;25.20;99.90
11083;DHT22;5595;50.186;8.468;2022-08-20T09:30:53;25.30;99.90
11083;DHT22;5595;50.186;8.468;2022-08-20T09:33:21;25.30;99.90
11083;DHT22;5595;50.186;8.468;2022-08-20T09:35:48;25.20;99.90
11083;DHT22;5595;50.186;8.468;2022-08-20T09:38:15;25.30;99.90
11083;DHT22;5595;50.186;8.468;2022-08-20T09:40:42;25.40;99.90
11083;DHT22;5595;50.186;8.468;2022-08-20T09:43:09;25.10;99.90
11083;DHT22;5595;50.186;8.468;2022-08-20T09:45:36;25.00;99.90
11083;DHT22;5595;50.186;8.468;2022-08-20T09:48:03;25.00;99.90
11083;DHT22;5595;50.186;8.468;2022-08-20T09:50:34;24.80;99.90
11083;DHT22;5595;50.186;8.468;2022-08-20T09:53:03;25.10;99.90
11083;DHT22;5595;50.186;8.468;2022-08-20T09:55:32;25.30;99.90
11083;DHT22;5595;50.186;8.468;2022-08-20T09:58:01;25.30;99.90
11083;DHT22;5595;50.186;8.468;2022-08-20T10:00:29;25.50;99.90
11083;DHT22;5595;50.186;8.468;2022-08-20T10:02:56;25.70;99.90
11083;DHT22;5595;50.186;8.468;2022-08-20T10:05:25;25.70;99.90
11083;DHT22;5595;50.186;8.468;2022-08-20T10:07:53;26.00;99.90
11083;DHT22;5595;50.186;8.468;2022-08-20T10:10:20;26.00;99.90
11083;DHT22;5595;50.186;8.468;2022-08-20T10:12:47;26.30;99.90
11083;DHT22;5595;50.186;8.468;2022-08-20T10:15:14;26.30;99.90
11083;DHT22;5595;50.186;8.468;2022-08-20T10:17:42;26.20;99.90
11083;DHT22;5595;50.186;8.468;2022-08-20T10:20:11;26.20;99.90
11083;DHT22;5595;50.186;8.468;2022-08-20T10:22:39;26.30;99.90
11083;DHT22;5595;50.186;8.468;2022-08-20T10:25:10;26.30;99.90
11083;DHT22;5595;50.186;8.468;2022-08-20T10:27:37;26.10;99.90
11083;DHT22;5595;50.186;8.468;2022-08-20T10:30:05;26.00;99.90
11083;DHT22;5595;50.186;8.468;2022-08-20T10:32:32;25.80;99.90
11083;DHT22;5595;50.186;8.468;2022-08-20T10:34:59;25.70;99.90
11083;DHT22;5595;50.186;8.468;2022-08-20T10:37:26;25.80;99.90
11083;DHT22;5595;50.186;8.468;2022-08-20T10:39:55;26.00;99.90
11083;DHT22;5595;50.186;8.468;2022-08-20T10:42:23;26.20;99.90
11083;DHT22;5595;50.186;8.468;2022-08-20T10:44:50;26.30;99.90
11083;DHT22;5595;50.186;8.468;2022-08-20T10:47:20;26.10;99.90
11083;DHT22;5595;50.186;8.468;2022-08-20T10:49:48;26.20;99.90
11083;DHT22;5595;50.186;8.468;2022-08-20T10:52:16;26.20;99.90
11083;DHT22;5595;50.186;8.468;2022-08-20T10:54:43;26.40;99.90
11083;DHT22;5595;50.186;8.468;2022-08-20T10:57:13;26.70;99.90
11083;DHT22;5595;50.186;8.468;2022-08-20T10:59:58;26.60;99.90
11083;DHT22;5595;50.186;8.468;2022-08-20T11:02:26;26.40;99.90
11083;DHT22;5595;50.186;8.468;2022-08-20T11:04:57;26.20;99.90
11083;DHT22;5595;50.186;8.468;2022-08-20T11:07:27;26.20;99.70
11083;DHT22;5595;50.186;8.468;2022-08-20T11:09:56;26.10;99.40
11083;DHT22;5595;50.186;8.468;2022-08-20T11:12:25;26.10;98.90
11083;DHT22;5595;50.186;8.468;2022-08-20T11:14:54;26.10;98.40
11083;DHT22;5595;50.186;8.468;2022-08-20T11:17:21;26.20;98.40
11083;DHT22;5595;50.186;8.468;2022-08-20T11:19:49;26.20;98.50
11083;DHT22;5595;50.186;8.468;2022-08-20T11:22:16;26.10;98.50
11083;DHT22;5595;50.186;8.468;2022-08-20T11:24:44;26.20;98.60
11083;DHT22;5595;50.186;8.468;2022-08-20T11:27:18;26.00;98.70
11083;DHT22;5595;50.186;8.468;2022-08-20T11:29:45;25.80;98.40
11083;DHT22;5595;50.186;8.468;2022-08-20T11:32:13;25.50;98.60
11083;DHT22;5595;50.186;8.468;2022-08-20T11:34:41;25.40;99.00
11083;DHT22;5595;50.186;8.468;2022-08-20T11:37:08;25.70;99.50
11083;DHT22;5595;50.186;8.468;2022-08-20T11:39:35;26.00;98.00
11083;DHT22;5595;50.186;8.468;2022-08-20T11:42:01;26.20;97.80
11083;DHT22;5595;50.186;8.468;2022-08-20T11:44:28;26.30;97.20
11083;DHT22;5595;50.186;8.468;2022-08-20T11:46:58;26.40;96.20
11083;DHT22;5595;50.186;8.468;2022-08-20T11:49:29;26.50;95.60
11083;DHT22;5595;50.186;8.468;2022-08-20T11:51:56;26.30;94.50
11083;DHT22;5595;50.186;8.468;2022-08-20T11:54:24;26.10;95.10
11083;DHT22;5595;50.186;8.468;2022-08-20T11:56:53;26.30;95.60
11083;DHT22;5595;50.186;8.468;2022-08-20T11:59:21;26.30;95.00
11083;DHT22;5595;50.186;8.468;2022-08-20T12:01:48;26.30;94.80
11083;DHT22;5595;50.186;8.468;2022-08-20T12:04:16;26.10;94.10
11083;DHT22;5595;50.186;8.468;2022-08-20T12:06:44;26.00;93.70
11083;DHT22;5595;50.186;8.468;2022-08-20T12:09:14;25.90;93.10
11083;DHT22;5595;50.186;8.468;2022-08-20T12:11:41;25.60;93.10
11083;DHT22;5595;50.186;8.468;2022-08-20T12:14:09;25.40;93.10
11083;DHT22;5595;50.186;8.468;2022-08-20T12:16:36;25.50;92.90
11083;DHT22;5595;50.186;8.468;2022-08-20T12:19:06;25.80;93.00
11083;DHT22;5595;50.186;8.468;2022-08-20T12:21:33;26.00;92.70
11083;DHT22;5595;50.186;8.468;2022-08-20T12:24:01;26.10;92.70
11083;DHT22;5595;50.186;8.468;2022-08-20T12:26:28;26.20;92.50
11083;DHT22;5595;50.186;8.468;2022-08-20T12:28:55;26.00;92.00
11083;DHT22;5595;50.186;8.468;2022-08-20T12:31:22;25.90;92.20
11083;DHT22;5595;50.186;8.468;2022-08-20T12:33:49;26.00;91.60
11083;DHT22;5595;50.186;8.468;2022-08-20T12:36:16;26.10;91.40
11083;DHT22;5595;50.186;8.468;2022-08-20T12:38:43;26.40;91.20
11083;DHT22;5595;50.186;8.468;2022-08-20T12:41:12;26.70;91.00
11083;DHT22;5595;50.186;8.468;2022-08-20T12:43:39;26.90;90.00
11083;DHT22;5595;50.186;8.468;2022-08-20T12:46:06;26.90;89.90
11083;DHT22;5595;50.186;8.468;2022-08-20T12:48:35;27.10;89.30
11083;DHT22;5595;50.186;8.468;2022-08-20T12:51:08;27.20;88.40
11083;DHT22;5595;50.186;8.468;2022-08-20T12:53:35;27.40;88.10
11083;DHT22;5595;50.186;8.468;2022-08-20T12:56:03;27.50;87.50
11083;DHT22;5595;50.186;8.468;2022-08-20T12:58:34;27.60;86.70
11083;DHT22;5595;50.186;8.468;2022-08-20T13:01:01;27.60;84.20
11083;DHT22;5595;50.186;8.468;2022-08-20T13:03:28;27.70;84.00
11083;DHT22;5595;50.186;8.468;2022-08-20T13:05:57;27.70;83.80
11083;DHT22;5595;50.186;8.468;2022-08-20T13:08:26;27.80;82.40
11083;DHT22;5595;50.186;8.468;2022-08-20T13:10:54;27.90;82.20
11083;DHT22;5595;50.186;8.468;2022-08-20T13:13:21;27.80;80.50
11083;DHT22;5595;50.186;8.468;2022-08-20T13:15:50;27.50;81.00
11083;DHT22;5595;50.186;8.468;2022-08-20T13:18:17;27.20;81.80
11083;DHT22;5595;50.186;8.468;2022-08-20T13:20:45;27.00;82.40
11083;DHT22;5595;50.186;8.468;2022-08-20T13:23:15;26.90;81.60
11083;DHT22;5595;50.186;8.468;2022-08-20T13:25:42;26.90;80.80
11083;DHT22;5595;50.186;8.468;2022-08-20T13:28:09;26.90;79.80
11083;DHT22;5595;50.186;8.468;2022-08-20T13:30:36;27.00;79.60
11083;DHT22;5595;50.186;8.468;2022-08-20T13:33:07;27.00;78.30
11083;DHT22;5595;50.186;8.468;2022-08-20T13:35:36;27.00;78.50
11083;DHT22;5595;50.186;8.468;2022-08-20T13:38:04;26.80;78.20
11083;DHT22;5595;50.186;8.468;2022-08-20T13:40:31;26.70;78.50
11083;DHT22;5595;50.186;8.468;2022-08-20T13:43:01;26.60;78.80
11083;DHT22;5595;50.186;8.468;2022-08-20T13:45:28;26.60;79.00
11083;DHT22;5595;50.186;8.468;2022-08-20T13:47:56;26.60;75.90
11083;DHT22;5595;50.186;8.468;2022-08-20T13:50:25;26.60;75.00
11083;DHT22;5595;50.186;8.468;2022-08-20T13:52:53;26.50;73.50
11083;DHT22;5595;50.186;8.468;2022-08-20T13:55:23;26.50;74.30
11083;DHT22;5595;50.186;8.468;2022-08-20T13:57:51;26.50;73.20
11083;DHT22;5595;50.186;8.468;2022-08-20T14:00:22;26.60;73.20
11083;DHT22;5595;50.186;8.468;2022-08-20T14:02:50;26.60;70.80
11083;DHT22;5595;50.186;8.468;2022-08-20T14:05:18;26.50;71.70
11083;DHT22;5595;50.186;8.468;2022-08-20T14:07:47;26.40;71.90
11083;DHT22;5595;50.186;8.468;2022-08-20T14:10:17;26.40;72.30
11083;DHT22;5595;50.186;8.468;2022-08-20T14:12:45;26.40;73.70
11083;DHT22;5595;50.186;8.468;2022-08-20T14:15:15;26.50;73.90
11083;DHT22;5595;50.186;8.468;2022-08-20T14:17:49;26.50;74.20
11083;DHT22;5595;50.186;8.468;2022-08-20T14:20:19;26.60;74.50
11083;DHT22;5595;50.186;8.468;2022-08-20T14:22:48;26.60;75.00
11083;DHT22;5595;50.186;8.468;2022-08-20T14:25:16;26.60;76.50
11083;DHT22;5595;50.186;8.468;2022-08-20T14:27:44;26.50;76.50
11083;DHT22;5595;50.186;8.468;2022-08-20T14:30:14;26.40;76.90
11083;DHT22;5595;50.186;8.468;2022-08-20T14:32:41;26.40;76.60
11083;DHT22;5595;50.186;8.468;2022-08-20T14:35:08;26.20;76.90
11083;DHT22;5595;50.186;8.468;2022-08-20T14:37:38;26.20;77.50
11083;DHT22;5595;50.186;8.468;2022-08-20T14:40:10;26.10;77.90
11083;DHT22;5595;50.186;8.468;2022-08-20T14:42:38;26.10;77.50
11083;DHT22;5595;50.186;8.468;2022-08-20T14:45:09;26.00;77.50
11083;DHT22;5595;50.186;8.468;2022-08-20T14:47:41;26.00;76.70
11083;DHT22;5595;50.186;8.468;2022-08-20T14:50:10;26.00;77.30
11083;DHT22;5595;50.186;8.468;2022-08-20T14:52:38;25.90;77.80
11083;DHT22;5595;50.186;8.468;2022-08-20T14:55:09;25.90;77.50
11083;DHT22;5595;50.186;8.468;2022-08-20T14:57:37;25.90;77.30
11083;DHT22;5595;50.186;8.468;2022-08-20T15:00:06;25.80;76.40
11083;DHT22;5595;50.186;8.468;2022-08-20T15:02:35;25.60;77.00
11083;DHT22;5595;50.186;8.468;2022-08-20T15:05:03;25.60;77.30
11083;DHT22;5595;50.186;8.468;2022-08-20T15:07:33;25.60;77.40
11083;DHT22;5595;50.186;8.468;2022-08-20T15:10:01;25.70;78.10
11083;DHT22;5595;50.186;8.468;2022-08-20T15:12:31;25.70;77.10
11083;DHT22;5595;50.186;8.468;2022-08-20T15:14:59;25.60;76.30
11083;DHT22;5595;50.186;8.468;2022-08-20T15:17:28;25.50;76.20
11083;DHT22;5595;50.186;8.468;2022-08-20T15:19:56;25.50;76.60
11083;DHT22;5595;50.186;8.468;2022-08-20T15:22:23;25.40;76.50
11083;DHT22;5595;50.186;8.468;2022-08-20T15:24:50;25.40;76.20
11083;DHT22;5595;50.186;8.468;2022-08-20T15:27:19;25.30;75.50
11083;DHT22;5595;50.186;8.468;2022-08-20T15:29:48;25.20;76.00
11083;DHT22;5595;50.186;8.468;2022-08-20T15:32:15;25.20;75.80
11083;DHT22;5595;50.186;8.468;2022-08-20T15:34:42;25.10;75.00
11083;DHT22;5595;50.186;8.468;2022-08-20T15:37:11;25.00;74.40
11083;DHT22;5595;50.186;8.468;2022-08-20T15:39:40;25.00;74.90
11083;DHT22;5595;50.186;8.468;2022-08-20T15:42:08;24.90;74.90
11083;DHT22;5595;50.186;8.468;2022-08-20T15:44:35;24.80;74.90
11083;DHT22;5595;50.186;8.468;2022-08-20T15:47:18;24.80;75.10
11083;DHT22;5595;50.186;8.468;2022-08-20T15:49:46;24.80;75.60
11083;DHT22;5595;50.186;8.468;2022-08-20T15:52:14;24.80;75.70